Time;durP1;ratioP1;P1;durP2;ratioP2;P2;SDS_P1;SDS_P2;PMS_P1;PMS_P2;Temp;Humidity;BMP_temperature;BMP_pressure;BME280_temperature;BME280_humidity;BME280_pressure;Samples;Min_cycle;Max_cycle;Signal;HPM_P1;HPM_P2
2020/12/20 00:02:22;;;;;;;10.43;6.27;;;;;;;-1.10;79.49;94020.05;1848136;77;21483;-78
2020/12/20 00:04:50;;;;;;;7.17;5.67;;;;;;;-1.10;79.67;94030.17;1784699;80;21159;-80
2020/12/20 00:07:21;;;;;;;8.03;5.30;;;;;;;-1.11;79.53;94026.48;1809723;79;21151;-78
2020/12/20 00:09:49;;;;;;;7.93;5.07;;;;;;;-1.11;79.53;94027.27;1783559;80;21134;-78
2020/12/20 00:12:17;;;;;;;8.70;5.40;;;;;;;-1.10;79.39;94030.72;1772030;79;21230;-80
2020/12/20 00:14:46;;;;;;;7.27;4.90;;;;;;;-1.09;79.25;94026.95;1747446;81;21474;-79
2020/12/20 00:17:14;;;;;;;7.07;5.70;;;;;;;-1.12;79.27;94024.92;1739849;81;21298;-76
2020/12/20 00:19:44;;;;;;;7.07;5.23;;;;;;;-1.14;79.22;94024.42;1765108;79;21148;-79
2020/12/20 00:22:13;;;;;;;6.53;5.20;;;;;;;-1.14;79.34;94029.77;1804396;79;21188;-80
2020/12/20 00:24:43;;;;;;;8.70;5.27;;;;;;;-1.15;79.25;94029.53;1776249;79;21869;-76
2020/12/20 00:27:12;;;;;;;7.47;5.03;;;;;;;-1.16;79.14;94031.42;1703045;81;21238;-79
2020/12/20 00:29:40;;;;;;;6.70;4.43;;;;;;;-1.17;79.07;94023.15;1784326;79;21425;-78
2020/12/20 00:32:10;;;;;;;8.60;5.43;;;;;;;-1.19;79.12;94033.36;1772365;77;21184;-79
2020/12/20 00:34:38;;;;;;;5.27;4.10;;;;;;;-1.18;79.07;94030.14;1812262;79;21610;-80
2020/12/20 00:37:06;;;;;;;7.10;4.63;;;;;;;-1.19;79.02;94025.91;1778219;77;21347;-82
2020/12/20 00:39:35;;;;;;;6.70;4.60;;;;;;;-1.20;79.01;94028.31;1791438;79;21518;-76
2020/12/20 00:42:05;;;;;;;6.40;4.60;;;;;;;-1.22;79.15;94029.95;1765077;79;21491;-80
2020/12/20 00:44:34;;;;;;;6.20;4.43;;;;;;;-1.23;79.17;94029.17;1795236;79;21184;-81
2020/12/20 00:47:03;;;;;;;7.87;5.43;;;;;;;-1.22;79.15;94030.75;1810150;77;21885;-78
2020/12/20 00:49:32;;;;;;;8.30;5.00;;;;;;;-1.18;78.97;94031.47;1793887;79;21365;-80
2020/12/20 00:52:03;;;;;;;6.10;4.40;;;;;;;-1.16;78.91;94031.97;1830390;78;21633;-83
2020/12/20 00:54:33;;;;;;;6.33;4.47;;;;;;;-1.18;78.77;94027.47;1811048;79;21642;-80
2020/12/20 00:57:02;;;;;;;8.67;5.87;;;;;;;-1.19;78.80;94028.57;1794982;79;21172;-80
2020/12/20 00:59:31;;;;;;;5.90;4.17;;;;;;;-1.23;78.90;94023.84;1758831;78;21641;-80
2020/12/20 01:02:15;;;;;;;7.00;4.93;;;;;;;-1.21;78.87;94018.19;1767326;81;21369;-78
2020/12/20 01:04:43;;;;;;;10.67;6.27;;;;;;;-1.20;78.77;94024.30;1727719;80;21100;-80
2020/12/20 01:07:11;;;;;;;8.27;5.00;;;;;;;-1.17;78.97;94027.70;1772398;79;21187;-79
2020/12/20 01:09:41;;;;;;;7.23;5.33;;;;;;;-1.16;78.75;94021.29;1796728;78;21188;-82
2020/12/20 01:12:11;;;;;;;5.93;4.53;;;;;;;-1.17;78.85;94021.81;1774552;79;21159;-80
2020/12/20 01:14:53;;;;;;;5.80;4.77;;;;;;;-1.19;78.77;94018.67;1746852;77;21281;-80
2020/12/20 01:17:21;;;;;;;8.40;5.10;;;;;;;-1.18;78.82;94022.13;1778014;78;21658;-80
2020/12/20 01:19:49;;;;;;;8.00;5.57;;;;;;;-1.15;78.67;94025.53;1768400;79;21188;-79
2020/12/20 01:22:19;;;;;;;8.23;5.33;;;;;;;-1.14;78.76;94021.20;1752820;79;21705;-81
2020/12/20 01:24:48;;;;;;;9.30;5.90;;;;;;;-1.11;78.81;94019.81;1798407;78;21190;-81
2020/12/20 01:27:17;;;;;;;6.83;5.03;;;;;;;-1.09;78.79;94018.95;1809656;79;21436;-81
2020/12/20 01:29:46;;;;;;;7.17;5.62;;;;;;;-1.08;78.70;94016.53;1827018;78;21171;-79
2020/12/20 01:34:45;;;;;;;7.57;5.50;;;;;;;-1.03;78.63;94006.50;1791877;79;21557;-78
2020/12/20 01:37:15;;;;;;;8.53;5.47;;;;;;;-0.99;78.74;94010.13;1805784;79;21444;-79
2020/12/20 01:39:45;;;;;;;7.07;4.83;;;;;;;-0.95;78.64;94010.85;1765529;80;22699;-79
2020/12/20 01:42:14;;;;;;;6.80;5.13;;;;;;;-0.94;78.61;94010.56;1724319;80;21192;-81
2020/12/20 01:44:43;;;;;;;7.23;5.13;;;;;;;-0.94;78.23;94014.56;1781243;78;21815;-82
2020/12/20 01:47:11;;;;;;;8.53;5.10;;;;;;;-0.96;78.23;94011.95;1776302;80;21171;-79
2020/12/20 01:49:43;;;;;;;8.13;5.30;;;;;;;-0.96;78.20;94021.30;1818415;78;21266;-80
2020/12/20 01:52:11;;;;;;;9.23;5.87;;;;;;;-0.97;78.13;94018.39;1798970;79;22248;-77
2020/12/20 01:54:43;;;;;;;8.20;5.50;;;;;;;-0.99;78.10;94014.69;1763234;80;21231;-81
2020/12/20 01:57:13;;;;;;;7.40;6.03;;;;;;;-0.99;78.11;94020.02;1784596;79;21195;-79
2020/12/20 01:59:52;;;;;;;9.38;6.20;;;;;;;-0.99;78.18;94026.70;1795444;79;21160;-78
2020/12/20 02:02:21;;;;;;;8.90;6.13;;;;;;;-1.01;78.10;94023.02;1747853;81;21223;-81
2020/12/20 02:04:51;;;;;;;10.53;6.40;;;;;;;-1.01;78.08;94023.02;1789928;79;21617;-79
2020/12/20 02:07:20;;;;;;;9.87;5.83;;;;;;;-1.00;77.93;94025.91;1793226;78;21210;-80
2020/12/20 02:09:48;;;;;;;11.73;7.57;;;;;;;-1.00;78.04;94021.91;1698189;82;21625;-80
2020/12/20 02:12:18;;;;;;;8.47;5.93;;;;;;;-0.99;78.34;94022.69;1732994;80;21164;-80
2020/12/20 02:14:51;;;;;;;11.73;7.12;;;;;;;-0.97;78.72;94016.51;1765171;80;21381;-79
2020/12/20 02:17:20;;;;;;;9.23;6.67;;;;;;;-0.91;78.71;94013.92;1744488;82;21169;-79
2020/12/20 02:19:49;;;;;;;8.20;5.93;;;;;;;-0.88;78.51;94013.31;1805532;79;21219;-79
2020/12/20 02:22:22;;;;;;;6.30;5.30;;;;;;;-0.84;78.49;94018.27;1818620;78;21500;-79
2020/12/20 02:24:51;;;;;;;7.87;5.87;;;;;;;-0.81;77.87;94012.88;1815502;78;21443;-79
2020/12/20 02:27:22;;;;;;;7.37;5.23;;;;;;;-0.82;77.65;94016.09;1811072;77;21168;-81
2020/12/20 02:29:52;;;;;;;7.90;5.85;;;;;;;-0.80;77.67;94011.77;1823670;76;21343;-78
2020/12/20 02:32:20;;;;;;;7.30;6.00;;;;;;;-0.81;77.64;94014.21;1764132;81;21663;-78
2020/12/20 02:34:49;;;;;;;8.68;5.80;;;;;;;-0.83;77.40;94013.20;1753287;80;21240;-82
2020/12/20 02:37:19;;;;;;;8.05;5.33;;;;;;;-0.87;77.02;94016.77;1792122;79;21036;-82
2020/12/20 02:39:52;;;;;;;9.78;6.47;;;;;;;-0.90;77.10;94017.37;1811828;79;21124;-78
2020/12/20 02:42:20;;;;;;;8.35;6.25;;;;;;;-0.93;77.13;94015.34;1748451;81;21271;-81
2020/12/20 02:44:49;;;;;;;7.50;5.43;;;;;;;-0.95;76.99;94013.52;1777919;79;21159;-81
2020/12/20 02:47:18;;;;;;;9.23;6.63;;;;;;;-0.96;77.01;94022.63;1815367;79;21622;-79
2020/12/20 02:49:46;;;;;;;6.80;5.17;;;;;;;-0.97;77.13;94023.73;1795954;78;21124;-80
2020/12/20 02:52:17;;;;;;;7.73;5.63;;;;;;;-0.97;77.14;94027.19;1767977;79;21151;-80
2020/12/20 02:54:45;;;;;;;7.33;6.03;;;;;;;-1.00;77.12;94023.24;1812965;77;21445;-80
2020/12/20 02:57:15;;;;;;;7.80;5.40;;;;;;;-1.00;76.99;94025.91;1801902;79;21191;-79
2020/12/20 02:59:48;;;;;;;7.10;5.20;;;;;;;-0.99;77.05;94026.14;1810857;79;21594;-78
2020/12/20 03:02:17;;;;;;;7.65;5.83;;;;;;;-0.96;77.01;94026.09;1788559;80;21168;-80
2020/12/20 03:04:47;;;;;;;7.27;5.17;;;;;;;-0.98;76.91;94021.59;1781858;79;21229;-79
2020/12/20 03:07:16;;;;;;;7.12;5.58;;;;;;;-0.97;76.74;94021.06;1743602;81;21634;-78
2020/12/20 03:09:50;;;;;;;8.15;5.37;;;;;;;-0.99;76.94;94025.36;1741818;79;21523;-79
2020/12/20 03:12:17;;;;;;;14.57;7.77;;;;;;;-0.97;77.08;94019.18;1806801;79;21147;-79
2020/12/20 03:14:46;;;;;;;18.75;9.95;;;;;;;-0.94;76.96;94022.58;1737756;82;21180;-81
2020/12/20 03:17:14;;;;;;;19.67;10.53;;;;;;;-0.91;76.81;94019.27;1797488;79;21692;-78
2020/12/20 03:19:43;;;;;;;10.80;6.93;;;;;;;-0.89;76.73;94013.63;1775776;79;21451;-81
2020/12/20 03:22:12;;;;;;;12.53;8.00;;;;;;;-0.86;76.61;94016.48;1796563;79;21170;-78
2020/12/20 03:24:42;;;;;;;14.95;9.83;;;;;;;-0.82;76.43;94019.32;1793573;79;21696;-80
2020/12/20 03:27:18;;;;;;;15.87;10.60;;;;;;;-0.81;76.41;94016.88;1732709;81;21289;-79
2020/12/20 03:29:49;;;;;;;16.37;10.93;;;;;;;-0.84;76.53;94010.81;1743289;81;21160;-79
2020/12/20 03:32:23;;;;;;;18.77;12.00;;;;;;;-0.85;76.77;94015.38;1772160;81;21471;-79
2020/12/20 03:34:53;;;;;;;19.15;12.53;;;;;;;-0.88;76.83;94010.64;1794864;79;21078;-80
2020/12/20 03:37:23;;;;;;;19.07;12.33;;;;;;;-0.94;77.12;94011.08;1796135;78;21119;-81
2020/12/20 03:39:53;;;;;;;18.97;11.20;;;;;;;-0.98;77.54;94006.91;1764323;79;21727;-78
2020/12/20 03:42:21;;;;;;;12.83;7.97;;;;;;;-0.97;77.67;94009.84;1731431;80;21420;-79
2020/12/20 03:44:49;;;;;;;9.58;6.22;;;;;;;-0.95;77.17;94007.63;1786894;79;22224;-79
2020/12/20 03:47:18;;;;;;;10.60;6.43;;;;;;;-0.96;76.83;94006.06;1769760;80;21588;-81
2020/12/20 03:49:48;;;;;;;7.93;5.60;;;;;;;-0.99;76.80;94006.67;1786223;78;21160;-81
2020/12/20 03:52:17;;;;;;;7.80;5.85;;;;;;;-1.07;76.43;94004.20;1754768;80;21135;-80
2020/12/20 03:54:47;;;;;;;9.77;5.30;;;;;;;-1.16;76.66;94008.73;1794540;78;21310;-79
2020/12/20 03:57:15;;;;;;;9.53;6.30;;;;;;;-1.27;76.69;94006.08;1771080;80;21192;-79
2020/12/20 03:59:43;;;;;;;7.97;5.43;;;;;;;-1.35;76.89;93999.61;1774627;80;21159;-80
2020/12/20 04:02:13;;;;;;;7.60;5.03;;;;;;;-1.40;77.04;94002.94;1815079;78;21223;-80
2020/12/20 04:04:41;;;;;;;7.43;4.83;;;;;;;-1.46;77.19;93999.62;1739107;81;21224;-79
2020/12/20 04:07:10;;;;;;;6.57;4.60;;;;;;;-1.52;77.52;94006.95;1728827;82;21160;-81
2020/12/20 04:09:40;;;;;;;7.27;4.97;;;;;;;-1.56;77.88;94010.54;1755242;80;21228;-79
2020/12/20 04:12:11;;;;;;;9.57;6.50;;;;;;;-1.56;77.74;94017.20;1779139;80;21605;-79
2020/12/20 04:14:41;;;;;;;6.80;5.00;;;;;;;-1.57;77.80;94023.64;1746631;81;21645;-83
2020/12/20 04:17:10;;;;;;;6.53;5.00;;;;;;;-1.57;77.90;94023.09;1805333;79;21168;-79
2020/12/20 04:19:38;;;;;;;9.00;5.53;;;;;;;-1.57;78.06;94022.30;1783459;79;21141;-82
2020/12/20 04:22:08;;;;;;;7.92;5.50;;;;;;;-1.55;78.03;94019.55;1731412;81;21377;-78
2020/12/20 04:24:54;;;;;;;7.50;5.20;;;;;;;-1.55;78.02;94024.11;1747645;78;21147;-81
2020/12/20 04:27:24;;;;;;;8.93;5.17;;;;;;;-1.55;77.89;94025.44;1784082;78;21154;-80
2020/12/20 04:29:55;;;;;;;9.20;5.77;;;;;;;-1.58;77.91;94024.71;1830589;77;21171;-79
2020/12/20 04:32:23;;;;;;;8.63;4.77;;;;;;;-1.61;78.12;94023.45;1817504;77;21166;-80
2020/12/20 04:34:52;;;;;;;6.03;4.60;;;;;;;-1.62;78.15;94027.74;1797115;79;21234;-80
2020/12/20 04:37:20;;;;;;;7.37;4.57;;;;;;;-1.64;77.95;94028.61;1772786;80;21208;-78
2020/12/20 04:39:59;;;;;;;7.60;4.93;;;;;;;-1.69;78.19;94032.19;1786015;78;21152;-80
2020/12/20 04:42:29;;;;;;;8.20;5.77;;;;;;;-1.74;78.15;94033.08;1815377;77;21186;-79
2020/12/20 04:44:59;;;;;;;6.57;4.50;;;;;;;-1.76;78.37;94036.60;1746094;82;21156;-78
2020/12/20 04:47:30;;;;;;;8.60;5.20;;;;;;;-1.77;78.40;94039.55;1810932;78;21188;-81
2020/12/20 04:49:59;;;;;;;6.13;4.83;;;;;;;-1.80;78.66;94038.84;1763243;80;21964;-79
2020/12/20 04:52:29;;;;;;;7.83;5.77;;;;;;;-1.80;78.70;94037.52;1771593;80;21175;-81
2020/12/20 04:54:58;;;;;;;6.47;4.77;;;;;;;-1.83;78.63;94041.56;1745518;81;21200;-78
2020/12/20 04:57:45;;;;;;;6.20;4.77;;;;;;;-1.83;78.58;94042.89;1791424;78;21215;-76
2020/12/20 05:00:14;;;;;;;6.67;4.73;;;;;;;-1.84;78.79;94033.84;1793124;78;21201;-77
2020/12/20 05:02:42;;;;;;;7.43;4.97;;;;;;;-1.83;78.74;94032.78;1825962;78;21174;-80
2020/12/20 05:05:13;;;;;;;7.53;5.10;;;;;;;-1.83;78.63;94043.45;1769444;79;21606;-78
2020/12/20 05:07:42;;;;;;;7.50;5.07;;;;;;;-1.86;78.54;94036.83;1761716;78;21109;-77
2020/12/20 05:10:11;;;;;;;8.07;5.63;;;;;;;-1.91;78.64;94040.17;1770759;80;21096;-80
2020/12/20 05:12:41;;;;;;;8.17;5.03;;;;;;;-1.94;78.94;94044.22;1781353;79;21219;-81
2020/12/20 05:15:21;;;;;;;6.90;4.90;;;;;;;-1.94;78.93;94038.89;1779090;80;21219;-80
2020/12/20 05:18:12;;;;;;;6.70;4.83;;;;;;;-2.00;78.89;94035.53;1718839;80;21755;-78
2020/12/20 05:20:47;;;;;;;7.30;5.03;;;;;;;-2.04;79.01;94037.22;1780822;80;21144;-76
2020/12/20 05:23:17;;;;;;;8.97;6.50;;;;;;;-2.09;79.13;94046.67;1796745;78;21520;-81
2020/12/20 05:25:48;;;;;;;7.83;5.50;;;;;;;-2.11;79.10;94048.05;1835910;77;21341;-78
2020/12/20 05:28:24;;;;;;;8.80;5.77;;;;;;;-2.14;79.35;94052.64;1836828;77;21189;-76
2020/12/20 05:30:56;;;;;;;7.13;5.03;;;;;;;-2.16;79.50;94054.29;1834508;76;21168;-79
2020/12/20 05:33:43;;;;;;;6.90;4.80;;;;;;;-2.19;79.36;94045.55;1795086;79;21172;-79
2020/12/20 05:36:15;;;;;;;7.10;5.10;;;;;;;-2.22;79.41;94050.96;1821033;78;21212;-79
2020/12/20 05:38:43;;;;;;;6.07;4.87;;;;;;;-2.25;79.61;94046.22;1737665;81;21377;-77
2020/12/20 05:41:13;;;;;;;5.60;4.40;;;;;;;-2.27;79.60;94048.38;1802640;78;21024;-78
2020/12/20 05:43:42;;;;;;;7.70;5.23;;;;;;;-2.31;79.57;94051.41;1798687;78;21170;-76
2020/12/20 05:46:10;;;;;;;9.70;6.47;;;;;;;-2.35;79.81;94055.75;1787447;79;21154;-77
2020/12/20 05:48:40;;;;;;;5.33;4.07;;;;;;;-2.36;80.18;94054.73;1777800;78;21147;-77
2020/12/20 05:51:11;;;;;;;6.23;4.70;;;;;;;-2.36;80.25;94052.85;1755820;81;21211;-80
2020/12/20 05:53:40;;;;;;;7.40;5.57;;;;;;;-2.34;80.32;94059.20;1762576;80;21187;-81
2020/12/20 05:56:10;;;;;;;6.63;4.87;;;;;;;-2.36;80.46;94062.17;1738917;81;21480;-79
2020/12/20 05:58:39;;;;;;;8.83;5.60;;;;;;;-2.36;80.48;94067.50;1718260;81;21978;-80
2020/12/20 06:01:08;;;;;;;7.20;5.27;;;;;;;-2.35;80.42;94065.63;1772834;78;21186;-78
2020/12/20 06:03:37;;;;;;;9.43;6.77;;;;;;;-2.35;80.38;94066.95;1820431;78;21362;-80
2020/12/20 06:06:06;;;;;;;6.03;4.23;;;;;;;-2.34;80.37;94072.52;1806983;78;21646;-79
2020/12/20 06:08:35;;;;;;;5.73;4.47;;;;;;;-2.29;80.22;94077.77;1778281;79;21579;-78
2020/12/20 06:11:03;;;;;;;7.73;4.90;;;;;;;-2.29;79.89;94077.77;1744003;80;22229;-80
2020/12/20 06:13:34;;;;;;;9.20;5.70;;;;;;;-2.28;80.05;94078.00;1752142;80;21171;-81
2020/12/20 06:16:04;;;;;;;6.97;4.47;;;;;;;-2.29;80.20;94082.55;1802091;78;21691;-81
2020/12/20 06:18:34;;;;;;;9.23;5.53;;;;;;;-2.29;80.23;94082.55;1766130;80;21203;-79
2020/12/20 06:21:02;;;;;;;6.13;4.60;;;;;;;-2.27;80.39;94085.68;1784747;77;21184;-80
2020/12/20 06:23:33;;;;;;;8.50;5.17;;;;;;;-2.22;80.26;94086.11;1797148;78;21177;-80
2020/12/20 06:26:03;;;;;;;8.70;5.70;;;;;;;-2.22;80.21;94081.59;1785761;79;21197;-82
2020/12/20 06:28:33;;;;;;;7.53;5.03;;;;;;;-2.20;80.11;94081.29;1760125;79;21217;-78
2020/12/20 06:31:03;;;;;;;7.70;5.20;;;;;;;-2.21;79.78;94088.50;1751744;79;21186;-80
2020/12/20 06:33:49;;;;;;;8.97;5.53;;;;;;;-2.25;80.14;94088.85;1844109;77;21597;-79
2020/12/20 06:36:17;;;;;;;9.57;5.93;;;;;;;-2.25;79.98;94092.84;1799135;78;21171;-79
2020/12/20 06:38:55;;;;;;;8.57;5.70;;;;;;;-2.25;80.21;94090.19;1772363;79;21229;-79
2020/12/20 06:41:36;;;;;;;9.70;6.20;;;;;;;-2.22;80.39;94095.44;1795548;78;22680;-79
2020/12/20 06:44:14;;;;;;;9.43;6.20;;;;;;;-2.20;80.55;94093.28;1780247;79;21176;-81
2020/12/20 06:46:44;;;;;;;8.67;5.03;;;;;;;-2.16;80.50;94096.92;1791534;80;21679;-81
2020/12/20 06:49:32;;;;;;;11.03;5.73;;;;;;;-2.12;80.57;94092.57;1727311;80;21188;-79
2020/12/20 06:52:07;;;;;;;8.23;5.67;;;;;;;-2.09;80.20;94092.53;1798209;79;21194;-78
2020/12/20 06:54:37;;;;;;;6.93;4.80;;;;;;;-2.09;79.97;94090.64;1740620;81;21371;-78
2020/12/20 06:57:09;;;;;;;9.90;5.57;;;;;;;-2.11;79.76;94094.69;1752867;81;21487;-78
2020/12/20 06:59:43;;;;;;;8.83;5.27;;;;;;;-2.09;80.18;94097.31;1758962;80;21177;-83
2020/12/20 07:02:34;;;;;;;8.97;5.77;;;;;;;-1.83;80.50;94096.22;1745807;80;21197;-80
2020/12/20 07:05:03;;;;;;;9.17;6.07;;;;;;;-1.28;79.79;94104.03;1754926;80;21159;-80
2020/12/20 07:07:32;;;;;;;6.17;3.97;;;;;;;-0.74;78.70;94099.47;1792161;79;39127;-78
2020/12/20 07:10:00;;;;;;;7.60;5.45;;;;;;;-0.19;75.69;94100.91;1769683;81;21195;-78
2020/12/20 07:12:31;;;;;;;6.37;4.72;;;;;;;0.32;75.25;94095.98;1768787;80;21180;-82
2020/12/20 07:15:00;;;;;;;6.45;4.45;;;;;;;0.83;72.24;94095.19;1767406;80;21349;-81
2020/12/20 07:17:29;;;;;;;5.97;4.42;;;;;;;0.92;69.05;94109.34;1775358;80;21183;-82
2020/12/20 07:20:13;;;;;;;4.58;3.83;;;;;;;0.62;69.15;94107.08;1783028;80;21273;-79
2020/12/20 07:22:44;;;;;;;10.90;5.67;;;;;;;0.24;70.18;94110.92;1758970;79;21387;-78
2020/12/20 07:25:12;;;;;;;7.58;5.37;;;;;;;-0.09;71.39;94114.00;1796744;79;21200;-80
2020/12/20 07:27:40;;;;;;;9.50;6.47;;;;;;;-0.35;71.61;94111.80;1735684;80;21492;-80
2020/12/20 07:30:08;;;;;;;7.85;5.08;;;;;;;-0.61;72.21;94118.37;1788286;79;21151;-80
2020/12/20 07:32:38;;;;;;;7.37;4.85;;;;;;;-0.83;73.00;94110.66;1764415;80;21368;-78
2020/12/20 07:35:07;;;;;;;5.70;4.42;;;;;;;-0.93;73.83;94116.80;1783508;77;21187;-80
2020/12/20 07:37:35;;;;;;;5.22;4.28;;;;;;;-0.96;74.83;94111.52;1769593;78;21178;-79
2020/12/20 07:40:04;;;;;;;5.53;4.30;;;;;;;-0.86;75.05;94114.49;1795998;79;21164;-78
2020/12/20 07:42:32;;;;;;;7.97;4.90;;;;;;;-0.67;74.53;94114.27;1744688;79;21245;-78
2020/12/20 07:45:01;;;;;;;5.00;3.87;;;;;;;-0.59;73.36;94109.52;1786491;78;22530;-79
2020/12/20 07:47:29;;;;;;;5.73;4.13;;;;;;;-0.63;73.62;94113.34;1817765;78;21190;-79
2020/12/20 07:49:59;;;;;;;5.20;4.10;;;;;;;-0.68;74.17;94111.34;1802576;79;21224;-80
2020/12/20 07:52:29;;;;;;;5.60;4.62;;;;;;;-0.66;73.51;94114.50;1798567;79;21168;-79
2020/12/20 07:54:58;;;;;;;6.92;4.15;;;;;;;-0.68;73.58;94116.13;1801525;78;21171;-79
2020/12/20 07:57:27;;;;;;;7.58;6.30;;;;;;;-0.57;74.09;94117.44;1812995;76;22031;-78
2020/12/20 08:00:05;;;;;;;6.20;4.50;;;;;;;-0.44;73.79;94128.36;1785986;78;21733;-80
2020/12/20 08:02:35;;;;;;;6.08;4.17;;;;;;;-0.35;72.97;94120.59;1774085;79;21444;-79
2020/12/20 08:05:08;;;;;;;6.17;4.65;;;;;;;-0.42;72.53;94135.50;1781370;80;21819;-80
2020/12/20 08:07:36;;;;;;;5.12;4.20;;;;;;;-0.53;72.91;94126.96;1754423;80;21189;-78
2020/12/20 08:10:07;;;;;;;5.83;4.25;;;;;;;-0.59;72.76;94122.88;1759208;80;21374;-80
2020/12/20 08:12:35;;;;;;;5.83;4.78;;;;;;;-0.67;72.91;94124.95;1743725;80;21194;-79
2020/12/20 08:15:07;;;;;;;5.28;3.95;;;;;;;-0.71;73.44;94127.97;1794723;79;21160;-79
2020/12/20 08:17:36;;;;;;;9.37;6.00;;;;;;;-0.78;73.84;94125.20;1792530;79;21230;-81
2020/12/20 08:20:06;;;;;;;5.37;4.20;;;;;;;-0.80;73.97;94130.61;1796978;79;21662;-79
2020/12/20 08:22:34;;;;;;;13.47;8.10;;;;;;;-0.83;74.16;94126.69;1728989;82;22160;-77
2020/12/20 08:25:10;;;;;;;4.80;3.72;;;;;;;-0.82;74.14;94133.59;1862580;76;21223;-79
2020/12/20 08:27:42;;;;;;;;;;;;;;;-0.82;73.79;94130.92;1828434;76;21221;-77
2020/12/20 08:30:11;;;;;;;17.67;12.00;;;;;;;-0.86;73.95;94129.17;1797075;76;20267;-81
2020/12/20 08:32:41;;;;;;;6.92;5.17;;;;;;;-0.89;74.07;94121.22;1826448;78;21156;-81
2020/12/20 08:35:14;;;;;;;10.55;7.25;;;;;;;-0.88;74.48;94121.45;1798135;79;21203;-81
2020/12/20 08:37:44;;;;;;;7.00;5.37;;;;;;;-0.87;74.36;94120.91;1793257;80;21124;-77
2020/12/20 08:40:19;;;;;;;7.17;5.47;;;;;;;-0.90;74.54;94120.98;1746613;81;21230;-81
2020/12/20 08:42:53;;;;;;;6.37;4.70;;;;;;;-0.90;74.72;94110.83;1786571;80;21041;-79
2020/12/20 08:45:23;;;;;;;5.27;4.10;;;;;;;-0.76;74.63;94110.20;1782263;78;21530;-77
2020/12/20 08:47:52;;;;;;;5.17;4.00;;;;;;;-0.67;74.14;94108.93;1817939;78;21409;-79
2020/12/20 08:50:24;;;;;;;4.20;3.55;;;;;;;-0.66;73.99;94107.83;1758179;80;21247;-79
2020/12/20 08:53:04;;;;;;;6.87;4.15;;;;;;;-0.66;74.22;94107.83;1690679;83;21637;-78
2020/12/20 08:55:33;;;;;;;5.12;3.90;;;;;;;-0.63;74.26;94112.56;1752937;81;21191;-78
2020/12/20 08:58:08;;;;;;;5.12;4.17;;;;;;;-0.62;74.39;94106.11;1833843;77;21179;-78
2020/12/20 09:00:36;;;;;;;5.70;4.72;;;;;;;-0.61;74.18;94111.69;1766486;80;22529;-78
2020/12/20 09:03:06;;;;;;;6.77;4.77;;;;;;;-0.61;74.01;94104.45;1782150;79;21160;-77
2020/12/20 09:05:39;;;;;;;6.27;4.23;;;;;;;-0.60;73.90;94103.38;1790709;80;21172;-79
2020/12/20 09:08:08;;;;;;;8.90;5.55;;;;;;;-0.61;73.78;94101.79;1787692;80;21184;-79
2020/12/20 09:10:37;;;;;;;7.58;4.87;;;;;;;-0.65;73.78;94100.83;1779466;80;21135;-76
2020/12/20 09:13:07;;;;;;;6.80;4.87;;;;;;;-0.75;73.79;94091.77;1757563;81;21363;-76
2020/12/20 09:15:37;;;;;;;6.10;4.67;;;;;;;-0.74;74.41;94093.34;1799925;79;21215;-79
2020/12/20 09:18:21;;;;;;;9.38;7.17;;;;;;;-0.72;74.34;94087.13;1778695;78;21472;-78
2020/12/20 09:20:51;;;;;;;10.53;6.37;;;;;;;-0.68;74.24;94085.41;1785141;79;21175;-77
2020/12/20 09:23:24;;;;;;;4.77;3.83;;;;;;;-0.66;74.02;94088.58;1798284;78;21697;-79
2020/12/20 09:26:01;;;;;;;18.48;10.10;;;;;;;-0.63;74.21;94079.17;1760377;81;21332;-78
2020/12/20 09:28:32;;;;;;;11.03;7.53;;;;;;;-0.55;74.47;94085.09;1770260;81;21176;-78
2020/12/20 09:31:03;;;;;;;7.37;5.90;;;;;;;-0.51;74.01;94073.47;1776786;80;21124;-76
2020/12/20 09:33:38;;;;;;;6.70;4.50;;;;;;;-0.53;73.61;94070.34;1802162;79;21216;-78
2020/12/20 09:36:14;;;;;;;8.27;5.33;;;;;;;-0.53;73.92;94070.86;1737851;82;21205;-74
2020/12/20 09:38:55;;;;;;;8.23;5.57;;;;;;;-0.48;73.79;94079.31;1762122;79;21221;-74
2020/12/20 09:41:25;;;;;;;9.27;6.07;;;;;;;-0.39;74.57;94075.55;1737014;80;21302;-76
2020/12/20 09:43:55;;;;;;;8.70;5.87;;;;;;;-0.21;74.14;94076.39;1822183;78;21182;-80
2020/12/20 09:46:32;;;;;;;13.30;7.75;;;;;;;-0.05;74.32;94078.86;1770884;79;21211;-79
2020/12/20 09:49:01;;;;;;;8.53;5.42;;;;;;;0.12;74.01;94073.31;1771902;79;21170;-74
2020/12/20 09:51:31;;;;;;;7.47;4.30;;;;;;;0.38;73.91;94066.09;1793722;79;21380;-76
2020/12/20 09:54:00;;;;;;;7.25;4.55;;;;;;;0.59;72.94;94068.91;1757190;81;21181;-75
2020/12/20 09:56:29;;;;;;;6.90;4.72;;;;;;;0.80;72.54;94065.03;1816356;78;21187;-75
2020/12/20 09:58:59;;;;;;;5.70;4.53;;;;;;;1.03;72.22;94064.83;1788833;80;21167;-76
2020/12/20 10:01:28;;;;;;;5.87;4.25;;;;;;;1.27;72.23;94063.72;1787300;78;21171;-77
2020/12/20 10:03:58;;;;;;;8.75;4.12;;;;;;;1.53;70.58;94056.92;1836934;77;21815;-78
2020/12/20 10:06:29;;;;;;;5.65;4.50;;;;;;;1.79;70.02;94050.09;1812866;78;22092;-78
2020/12/20 10:08:58;;;;;;;5.17;4.20;;;;;;;2.10;69.19;94056.45;1803593;79;21418;-77
2020/12/20 10:11:26;;;;;;;5.30;4.58;;;;;;;2.41;67.22;94049.95;1791354;80;21160;-77
2020/12/20 10:13:55;;;;;;;3.90;3.50;;;;;;;2.61;66.01;94049.70;1763924;81;21514;-77
2020/12/20 10:16:24;;;;;;;4.72;3.67;;;;;;;2.71;66.27;94050.64;1787868;80;21195;-78
2020/12/20 10:18:52;;;;;;;5.55;4.30;;;;;;;2.78;66.07;94041.47;1805129;79;21127;-78
2020/12/20 10:21:20;;;;;;;6.20;4.58;;;;;;;2.75;64.54;94046.18;1803257;78;21162;-78
2020/12/20 10:23:50;;;;;;;6.72;4.65;;;;;;;2.68;64.64;94038.66;1794362;78;21202;-75
2020/12/20 10:26:19;;;;;;;4.75;3.92;;;;;;;2.65;65.16;94037.18;1750240;81;21543;-82
2020/12/20 10:28:46;;;;;;;5.90;4.53;;;;;;;2.61;65.26;94036.27;1779897;79;21262;-78
2020/12/20 10:31:20;;;;;;;5.28;4.65;;;;;;;2.55;65.23;94040.26;1758148;79;21180;-77
2020/12/20 10:33:51;;;;;;;5.25;4.12;;;;;;;2.49;65.02;94037.56;1796735;78;21148;-78
2020/12/20 10:36:20;;;;;;;7.35;5.15;;;;;;;2.45;65.54;94037.44;1821250;77;21191;-78
2020/12/20 10:38:49;;;;;;;6.58;4.42;;;;;;;2.44;65.92;94031.81;1755785;79;22059;-78
2020/12/20 10:41:19;;;;;;;5.85;4.50;;;;;;;2.47;65.77;94037.88;1813033;79;22185;-78
2020/12/20 10:43:47;;;;;;;6.60;4.78;;;;;;;2.48;65.49;94032.73;1800409;79;21250;-78
2020/12/20 10:46:16;;;;;;;5.42;4.25;;;;;;;2.50;65.36;94029.17;1758610;79;21164;-78
2020/12/20 10:48:44;;;;;;;6.47;4.92;;;;;;;2.46;65.18;94032.29;1763758;81;21203;-77
2020/12/20 10:51:15;;;;;;;6.20;4.30;;;;;;;2.44;65.15;94026.45;1778412;79;21191;-77
2020/12/20 10:53:47;;;;;;;5.90;4.90;;;;;;;2.41;64.45;94023.88;1761452;79;21206;-77
2020/12/20 10:56:21;;;;;;;7.10;5.00;;;;;;;2.36;64.74;94024.63;1815593;78;21214;-77
2020/12/20 10:58:51;;;;;;;5.83;4.47;;;;;;;2.33;64.85;94030.64;1803358;79;21151;-76
2020/12/20 11:01:20;;;;;;;6.95;4.85;;;;;;;2.33;65.30;94030.64;1769103;79;21171;-77
2020/12/20 11:03:49;;;;;;;6.40;5.30;;;;;;;2.36;65.04;94026.75;1779241;80;21495;-77
2020/12/20 11:06:23;;;;;;;6.60;5.00;;;;;;;2.35;64.55;94014.45;1779660;80;21413;-78
2020/12/20 11:08:52;;;;;;;5.35;4.12;;;;;;;2.34;64.96;94014.79;1746412;81;21217;-78
2020/12/20 11:11:30;;;;;;;8.98;5.58;;;;;;;2.39;64.93;94010.55;1776549;80;21195;-77
2020/12/20 11:13:59;;;;;;;6.75;4.75;;;;;;;2.44;64.66;94004.97;1867756;76;21132;-77
2020/12/20 11:16:27;;;;;;;5.67;4.00;;;;;;;2.51;64.52;94007.91;1819534;76;21172;-77
2020/12/20 11:18:56;;;;;;;9.23;4.80;;;;;;;2.56;64.58;94004.27;1800498;79;22137;-77
2020/12/20 11:21:24;;;;;;;6.78;4.90;;;;;;;2.58;64.56;94002.80;1809775;79;21186;-79
2020/12/20 11:23:53;;;;;;;5.83;4.72;;;;;;;2.65;64.46;93995.56;1846144;77;21147;-76
2020/12/20 11:26:25;;;;;;;5.70;4.35;;;;;;;2.69;64.52;94007.20;1812865;78;21112;-78
2020/12/20 11:28:56;;;;;;;8.73;4.90;;;;;;;2.71;64.40;93994.25;1804424;78;21180;-76
2020/12/20 11:31:25;;;;;;;5.55;4.40;;;;;;;2.72;64.43;93999.84;1758994;80;22141;-76
2020/12/20 11:33:53;;;;;;;7.85;4.67;;;;;;;2.71;64.43;93995.59;1754326;80;21148;-77
2020/12/20 11:36:23;;;;;;;5.80;4.67;;;;;;;2.74;64.73;94000.84;1769226;80;21447;-79
2020/12/20 11:38:58;;;;;;;8.28;4.90;;;;;;;2.76;64.13;93999.40;1813799;79;21647;-76
2020/12/20 11:41:28;;;;;;;6.53;4.78;;;;;;;2.77;63.79;93984.06;1760041;80;21212;-77
2020/12/20 11:43:57;;;;;;;4.87;4.03;;;;;;;2.75;63.73;93986.31;1788811;80;21435;-77
2020/12/20 11:46:26;;;;;;;7.72;5.28;;;;;;;2.75;63.70;93979.04;1821085;78;21410;-75
2020/12/20 11:48:54;;;;;;;8.60;5.65;;;;;;;2.79;63.78;93978.59;1802338;78;21659;-76
2020/12/20 11:51:26;;;;;;;37.73;20.10;;;;;;;2.81;63.91;93984.97;1777718;79;21113;-76
2020/12/20 11:53:53;;;;;;;24.63;12.33;;;;;;;2.83;63.96;93983.53;1750658;76;21199;-75